sensor_id;sensor_type;location;lat;lon;timestamp;P1;durP1;ratioP1;P2;durP2;ratioP2
19509;SDS011;9896;42.486;26.506;2023-02-26T00:02:17;24.33;;;10.47;;
19509;SDS011;9896;42.486;26.506;2023-02-26T00:04:43;20.03;;;9.67;;
19509;SDS011;9896;42.486;26.506;2023-02-26T00:07:08;22.20;;;9.77;;
19509;SDS011;9896;42.486;26.506;2023-02-26T00:09:34;30.30;;;11.80;;
19509;SDS011;9896;42.486;26.506;2023-02-26T00:12:00;19.47;;;8.83;;
19509;SDS011;9896;42.486;26.506;2023-02-26T00:14:26;21.33;;;10.60;;
19509;SDS011;9896;42.486;26.506;2023-02-26T00:17:03;27.33;;;11.50;;
19509;SDS011;9896;42.486;26.506;2023-02-26T00:19:49;26.00;;;12.77;;
19509;SDS011;9896;42.486;26.506;2023-02-26T00:22:15;27.27;;;12.10;;
19509;SDS011;9896;42.486;26.506;2023-02-26T00:24:41;27.73;;;11.77;;
19509;SDS011;9896;42.486;26.506;2023-02-26T00:27:06;26.07;;;11.37;;
19509;SDS011;9896;42.486;26.506;2023-02-26T00:29:33;25.00;;;9.40;;
19509;SDS011;9896;42.486;26.506;2023-02-26T00:31:59;18.23;;;9.00;;
19509;SDS011;9896;42.486;26.506;2023-02-26T00:34:25;21.90;;;9.43;;
19509;SDS011;9896;42.486;26.506;2023-02-26T00:37:01;22.27;;;10.03;;
19509;SDS011;9896;42.486;26.506;2023-02-26T00:42:10;23.73;;;9.20;;
19509;SDS011;9896;42.486;26.506;2023-02-26T00:44:37;24.47;;;8.60;;
19509;SDS011;9896;42.486;26.506;2023-02-26T00:52:23;22.47;;;7.80;;
19509;SDS011;9896;42.486;26.506;2023-02-26T00:54:56;27.53;;;9.50;;
19509;SDS011;9896;42.486;26.506;2023-02-26T00:57:22;27.00;;;11.33;;
19509;SDS011;9896;42.486;26.506;2023-02-26T00:59:48;20.57;;;9.83;;
19509;SDS011;9896;42.486;26.506;2023-02-26T01:02:13;22.80;;;8.83;;
19509;SDS011;9896;42.486;26.506;2023-02-26T01:04:39;19.60;;;8.13;;
19509;SDS011;9896;42.486;26.506;2023-02-26T01:07:05;21.07;;;7.70;;
19509;SDS011;9896;42.486;26.506;2023-02-26T01:09:34;22.27;;;8.53;;
19509;SDS011;9896;42.486;26.506;2023-02-26T01:12:04;27.73;;;7.90;;
19509;SDS011;9896;42.486;26.506;2023-02-26T01:14:32;24.90;;;8.07;;
19509;SDS011;9896;42.486;26.506;2023-02-26T01:22:20;22.00;;;8.07;;
19509;SDS011;9896;42.486;26.506;2023-02-26T01:25:03;20.13;;;7.33;;
19509;SDS011;9896;42.486;26.506;2023-02-26T01:27:31;20.57;;;6.77;;
19509;SDS011;9896;42.486;26.506;2023-02-26T01:29:57;15.63;;;5.83;;
19509;SDS011;9896;42.486;26.506;2023-02-26T01:32:32;22.77;;;7.03;;
19509;SDS011;9896;42.486;26.506;2023-02-26T01:42:55;21.27;;;7.43;;
19509;SDS011;9896;42.486;26.506;2023-02-26T01:45:32;18.87;;;6.83;;
19509;SDS011;9896;42.486;26.506;2023-02-26T01:48:04;19.10;;;7.40;;
19509;SDS011;9896;42.486;26.506;2023-02-26T01:50:37;21.97;;;7.60;;
19509;SDS011;9896;42.486;26.506;2023-02-26T01:53:14;14.17;;;7.23;;
19509;SDS011;9896;42.486;26.506;2023-02-26T01:55:41;21.37;;;7.47;;
19509;SDS011;9896;42.486;26.506;2023-02-26T01:58:09;26.50;;;7.97;;
19509;SDS011;9896;42.486;26.506;2023-02-26T02:00:35;22.67;;;6.97;;
19509;SDS011;9896;42.486;26.506;2023-02-26T02:03:01;20.60;;;8.10;;
19509;SDS011;9896;42.486;26.506;2023-02-26T02:05:29;23.47;;;7.43;;
19509;SDS011;9896;42.486;26.506;2023-02-26T02:07:58;23.20;;;7.33;;
19509;SDS011;9896;42.486;26.506;2023-02-26T02:10:25;19.90;;;8.30;;
19509;SDS011;9896;42.486;26.506;2023-02-26T02:16:03;24.87;;;8.33;;
19509;SDS011;9896;42.486;26.506;2023-02-26T02:27:43;24.00;;;8.20;;
19509;SDS011;9896;42.486;26.506;2023-02-26T02:33:05;26.70;;;8.20;;
19509;SDS011;9896;42.486;26.506;2023-02-26T02:35:58;17.83;;;8.23;;
19509;SDS011;9896;42.486;26.506;2023-02-26T02:38:33;21.40;;;7.80;;
19509;SDS011;9896;42.486;26.506;2023-02-26T02:41:25;18.73;;;7.40;;
19509;SDS011;9896;42.486;26.506;2023-02-26T02:43:54;10.03;;;4.80;;
19509;SDS011;9896;42.486;26.506;2023-02-26T02:46:25;14.73;;;6.27;;
19509;SDS011;9896;42.486;26.506;2023-02-26T02:49:01;21.60;;;7.40;;
19509;SDS011;9896;42.486;26.506;2023-02-26T02:51:31;17.80;;;7.23;;
19509;SDS011;9896;42.486;26.506;2023-02-26T02:54:12;21.10;;;7.23;;
19509;SDS011;9896;42.486;26.506;2023-02-26T02:56:49;18.20;;;6.73;;
19509;SDS011;9896;42.486;26.506;2023-02-26T02:59:22;18.50;;;7.03;;
19509;SDS011;9896;42.486;26.506;2023-02-26T03:05:08;20.90;;;8.13;;
19509;SDS011;9896;42.486;26.506;2023-02-26T03:07:35;20.47;;;7.87;;
19509;SDS011;9896;42.486;26.506;2023-02-26T03:10:07;24.93;;;7.73;;
19509;SDS011;9896;42.486;26.506;2023-02-26T03:12:33;20.27;;;8.60;;
19509;SDS011;9896;42.486;26.506;2023-02-26T03:14:59;19.60;;;7.93;;
19509;SDS011;9896;42.486;26.506;2023-02-26T03:17:30;20.67;;;7.17;;
19509;SDS011;9896;42.486;26.506;2023-02-26T03:23:11;25.60;;;7.53;;
19509;SDS011;9896;42.486;26.506;2023-02-26T03:25:59;19.33;;;7.33;;
19509;SDS011;9896;42.486;26.506;2023-02-26T03:29:04;19.27;;;7.33;;
19509;SDS011;9896;42.486;26.506;2023-02-26T03:31:40;25.60;;;7.77;;
19509;SDS011;9896;42.486;26.506;2023-02-26T03:34:12;14.10;;;6.77;;
19509;SDS011;9896;42.486;26.506;2023-02-26T03:36:45;18.03;;;7.70;;
19509;SDS011;9896;42.486;26.506;2023-02-26T03:41:56;20.53;;;7.70;;
19509;SDS011;9896;42.486;26.506;2023-02-26T03:44:26;17.73;;;7.00;;
19509;SDS011;9896;42.486;26.506;2023-02-26T03:46:57;23.67;;;6.90;;
19509;SDS011;9896;42.486;26.506;2023-02-26T03:49:35;19.07;;;7.63;;
19509;SDS011;9896;42.486;26.506;2023-02-26T03:52:06;16.83;;;7.10;;
19509;SDS011;9896;42.486;26.506;2023-02-26T03:54:34;25.77;;;7.70;;
19509;SDS011;9896;42.486;26.506;2023-02-26T03:57:04;24.23;;;7.33;;
19509;SDS011;9896;42.486;26.506;2023-02-26T03:59:29;22.27;;;7.07;;
19509;SDS011;9896;42.486;26.506;2023-02-26T04:02:13;16.33;;;7.23;;
19509;SDS011;9896;42.486;26.506;2023-02-26T04:04:44;20.50;;;7.33;;
19509;SDS011;9896;42.486;26.506;2023-02-26T04:07:15;19.43;;;7.70;;
19509;SDS011;9896;42.486;26.506;2023-02-26T04:09:43;26.70;;;7.33;;
19509;SDS011;9896;42.486;26.506;2023-02-26T04:12:12;19.07;;;8.37;;
19509;SDS011;9896;42.486;26.506;2023-02-26T04:14:38;16.80;;;7.90;;
19509;SDS011;9896;42.486;26.506;2023-02-26T04:17:04;22.77;;;9.30;;
19509;SDS011;9896;42.486;26.506;2023-02-26T04:19:29;19.40;;;9.33;;
19509;SDS011;9896;42.486;26.506;2023-02-26T04:21:55;25.57;;;7.63;;
19509;SDS011;9896;42.486;26.506;2023-02-26T04:24:21;19.57;;;7.37;;
19509;SDS011;9896;42.486;26.506;2023-02-26T04:26:47;25.77;;;8.50;;
19509;SDS011;9896;42.486;26.506;2023-02-26T04:29:12;18.50;;;8.17;;
19509;SDS011;9896;42.486;26.506;2023-02-26T04:31:38;18.23;;;7.70;;
19509;SDS011;9896;42.486;26.506;2023-02-26T04:34:04;34.03;;;14.63;;
19509;SDS011;9896;42.486;26.506;2023-02-26T04:36:30;20.87;;;9.60;;
19509;SDS011;9896;42.486;26.506;2023-02-26T04:38:55;19.10;;;7.80;;
19509;SDS011;9896;42.486;26.506;2023-02-26T04:41:21;26.60;;;7.23;;
19509;SDS011;9896;42.486;26.506;2023-02-26T04:43:47;22.73;;;7.47;;
19509;SDS011;9896;42.486;26.506;2023-02-26T04:46:12;21.57;;;7.60;;
19509;SDS011;9896;42.486;26.506;2023-02-26T04:48:38;15.33;;;6.67;;
19509;SDS011;9896;42.486;26.506;2023-02-26T04:51:04;15.07;;;7.10;;
19509;SDS011;9896;42.486;26.506;2023-02-26T04:53:30;21.47;;;7.10;;
19509;SDS011;9896;42.486;26.506;2023-02-26T04:55:56;24.27;;;6.70;;
19509;SDS011;9896;42.486;26.506;2023-02-26T04:58:21;15.30;;;6.00;;
19509;SDS011;9896;42.486;26.506;2023-02-26T05:00:51;23.57;;;7.57;;
19509;SDS011;9896;42.486;26.506;2023-02-26T05:03:18;19.67;;;8.30;;
19509;SDS011;9896;42.486;26.506;2023-02-26T05:05:44;20.90;;;8.03;;
19509;SDS011;9896;42.486;26.506;2023-02-26T05:08:10;15.73;;;6.90;;
19509;SDS011;9896;42.486;26.506;2023-02-26T05:10:36;18.00;;;7.33;;
19509;SDS011;9896;42.486;26.506;2023-02-26T05:13:01;16.93;;;6.10;;
19509;SDS011;9896;42.486;26.506;2023-02-26T05:15:27;22.07;;;7.87;;
19509;SDS011;9896;42.486;26.506;2023-02-26T05:17:52;21.07;;;7.13;;
19509;SDS011;9896;42.486;26.506;2023-02-26T05:20:18;14.50;;;5.40;;
19509;SDS011;9896;42.486;26.506;2023-02-26T05:22:44;15.07;;;6.23;;
19509;SDS011;9896;42.486;26.506;2023-02-26T05:25:09;17.67;;;5.97;;
19509;SDS011;9896;42.486;26.506;2023-02-26T05:27:39;22.40;;;6.07;;
19509;SDS011;9896;42.486;26.506;2023-02-26T05:30:06;15.10;;;5.47;;
19509;SDS011;9896;42.486;26.506;2023-02-26T05:32:33;18.03;;;6.00;;
19509;SDS011;9896;42.486;26.506;2023-02-26T05:35:00;18.87;;;6.33;;
19509;SDS011;9896;42.486;26.506;2023-02-26T05:37:26;17.10;;;5.27;;
19509;SDS011;9896;42.486;26.506;2023-02-26T05:39:51;17.03;;;5.77;;
19509;SDS011;9896;42.486;26.506;2023-02-26T05:42:18;15.13;;;4.87;;
19509;SDS011;9896;42.486;26.506;2023-02-26T05:44:43;12.07;;;5.07;;
19509;SDS011;9896;42.486;26.506;2023-02-26T05:47:09;14.37;;;6.23;;
19509;SDS011;9896;42.486;26.506;2023-02-26T05:49:35;14.53;;;6.10;;
19509;SDS011;9896;42.486;26.506;2023-02-26T05:52:01;14.20;;;6.00;;
19509;SDS011;9896;42.486;26.506;2023-02-26T05:54:26;17.63;;;6.03;;
19509;SDS011;9896;42.486;26.506;2023-02-26T05:56:52;17.00;;;6.53;;
19509;SDS011;9896;42.486;26.506;2023-02-26T05:59:17;16.90;;;5.60;;
19509;SDS011;9896;42.486;26.506;2023-02-26T06:01:43;15.63;;;6.67;;
19509;SDS011;9896;42.486;26.506;2023-02-26T06:04:09;15.03;;;5.80;;
19509;SDS011;9896;42.486;26.506;2023-02-26T06:06:34;17.50;;;5.90;;
19509;SDS011;9896;42.486;26.506;2023-02-26T06:09:00;14.63;;;4.70;;
19509;SDS011;9896;42.486;26.506;2023-02-26T06:11:27;21.57;;;5.80;;
19509;SDS011;9896;42.486;26.506;2023-02-26T06:13:53;13.70;;;5.43;;
19509;SDS011;9896;42.486;26.506;2023-02-26T06:16:19;15.83;;;6.23;;
19509;SDS011;9896;42.486;26.506;2023-02-26T06:18:45;12.80;;;5.20;;
19509;SDS011;9896;42.486;26.506;2023-02-26T06:21:11;16.57;;;5.67;;
19509;SDS011;9896;42.486;26.506;2023-02-26T06:23:37;14.97;;;6.20;;
19509;SDS011;9896;42.486;26.506;2023-02-26T06:26:03;25.47;;;6.60;;
19509;SDS011;9896;42.486;26.506;2023-02-26T06:28:29;16.43;;;5.70;;
19509;SDS011;9896;42.486;26.506;2023-02-26T06:30:55;15.70;;;5.93;;
19509;SDS011;9896;42.486;26.506;2023-02-26T06:33:20;15.17;;;5.73;;
19509;SDS011;9896;42.486;26.506;2023-02-26T06:35:46;20.60;;;5.50;;
19509;SDS011;9896;42.486;26.506;2023-02-26T06:38:12;16.30;;;6.63;;
19509;SDS011;9896;42.486;26.506;2023-02-26T06:40:38;17.37;;;5.43;;
19509;SDS011;9896;42.486;26.506;2023-02-26T06:43:04;17.20;;;5.90;;
19509;SDS011;9896;42.486;26.506;2023-02-26T06:45:29;15.27;;;6.63;;
19509;SDS011;9896;42.486;26.506;2023-02-26T06:47:55;15.67;;;5.13;;
19509;SDS011;9896;42.486;26.506;2023-02-26T06:50:21;13.07;;;5.83;;
19509;SDS011;9896;42.486;26.506;2023-02-26T06:52:46;17.97;;;5.53;;
19509;SDS011;9896;42.486;26.506;2023-02-26T06:55:12;25.73;;;6.13;;
19509;SDS011;9896;42.486;26.506;2023-02-26T06:57:37;12.27;;;5.00;;
19509;SDS011;9896;42.486;26.506;2023-02-26T07:00:03;13.43;;;5.70;;
19509;SDS011;9896;42.486;26.506;2023-02-26T07:02:30;18.43;;;5.43;;
19509;SDS011;9896;42.486;26.506;2023-02-26T07:04:56;16.80;;;5.00;;
19509;SDS011;9896;42.486;26.506;2023-02-26T07:07:22;14.97;;;5.30;;
19509;SDS011;9896;42.486;26.506;2023-02-26T07:09:47;17.27;;;4.67;;
19509;SDS011;9896;42.486;26.506;2023-02-26T07:12:13;20.50;;;6.13;;
19509;SDS011;9896;42.486;26.506;2023-02-26T07:14:39;16.37;;;5.63;;
19509;SDS011;9896;42.486;26.506;2023-02-26T07:17:07;20.27;;;5.87;;
19509;SDS011;9896;42.486;26.506;2023-02-26T07:19:33;24.03;;;5.90;;
19509;SDS011;9896;42.486;26.506;2023-02-26T07:21:58;16.27;;;5.50;;
19509;SDS011;9896;42.486;26.506;2023-02-26T07:24:24;19.53;;;5.67;;
19509;SDS011;9896;42.486;26.506;2023-02-26T07:26:49;13.00;;;4.97;;
19509;SDS011;9896;42.486;26.506;2023-02-26T07:29:15;13.93;;;5.97;;
19509;SDS011;9896;42.486;26.506;2023-02-26T07:31:40;27.63;;;5.93;;
19509;SDS011;9896;42.486;26.506;2023-02-26T07:34:06;16.30;;;5.17;;
19509;SDS011;9896;42.486;26.506;2023-02-26T07:36:32;12.87;;;5.27;;
19509;SDS011;9896;42.486;26.506;2023-02-26T07:38:57;19.73;;;6.80;;
19509;SDS011;9896;42.486;26.506;2023-02-26T07:41:23;12.80;;;5.13;;
19509;SDS011;9896;42.486;26.506;2023-02-26T07:43:48;17.53;;;4.80;;
19509;SDS011;9896;42.486;26.506;2023-02-26T07:46:14;14.03;;;4.90;;
19509;SDS011;9896;42.486;26.506;2023-02-26T07:48:40;19.20;;;6.07;;
19509;SDS011;9896;42.486;26.506;2023-02-26T07:51:05;11.63;;;4.60;;
19509;SDS011;9896;42.486;26.506;2023-02-26T07:53:32;13.57;;;4.97;;
19509;SDS011;9896;42.486;26.506;2023-02-26T07:55:58;19.40;;;5.50;;
19509;SDS011;9896;42.486;26.506;2023-02-26T07:58:24;20.87;;;5.23;;
19509;SDS011;9896;42.486;26.506;2023-02-26T08:00:49;15.47;;;5.63;;
19509;SDS011;9896;42.486;26.506;2023-02-26T08:03:17;12.10;;;4.60;;
19509;SDS011;9896;42.486;26.506;2023-02-26T08:05:43;15.83;;;5.97;;
19509;SDS011;9896;42.486;26.506;2023-02-26T08:08:09;12.57;;;4.77;;
19509;SDS011;9896;42.486;26.506;2023-02-26T08:10:35;16.07;;;5.40;;
19509;SDS011;9896;42.486;26.506;2023-02-26T08:13:00;17.67;;;5.37;;
19509;SDS011;9896;42.486;26.506;2023-02-26T08:15:26;18.77;;;5.83;;
19509;SDS011;9896;42.486;26.506;2023-02-26T08:17:52;16.33;;;5.47;;
19509;SDS011;9896;42.486;26.506;2023-02-26T08:20:18;18.77;;;4.67;;
19509;SDS011;9896;42.486;26.506;2023-02-26T08:22:43;20.50;;;5.10;;
19509;SDS011;9896;42.486;26.506;2023-02-26T08:25:09;12.17;;;5.33;;
19509;SDS011;9896;42.486;26.506;2023-02-26T08:27:35;16.97;;;4.93;;
19509;SDS011;9896;42.486;26.506;2023-02-26T08:30:01;15.37;;;4.00;;
19509;SDS011;9896;42.486;26.506;2023-02-26T08:32:28;15.50;;;5.83;;
19509;SDS011;9896;42.486;26.506;2023-02-26T08:34:53;12.13;;;4.20;;
19509;SDS011;9896;42.486;26.506;2023-02-26T08:37:19;18.90;;;5.17;;
19509;SDS011;9896;42.486;26.506;2023-02-26T08:39:48;14.77;;;4.37;;
19509;SDS011;9896;42.486;26.506;2023-02-26T08:42:14;12.50;;;4.23;;
19509;SDS011;9896;42.486;26.506;2023-02-26T08:44:43;17.80;;;4.13;;
19509;SDS011;9896;42.486;26.506;2023-02-26T08:47:09;14.67;;;4.13;;
19509;SDS011;9896;42.486;26.506;2023-02-26T08:49:35;12.43;;;4.73;;
19509;SDS011;9896;42.486;26.506;2023-02-26T08:52:00;18.03;;;4.23;;
19509;SDS011;9896;42.486;26.506;2023-02-26T08:54:26;31.43;;;5.83;;
19509;SDS011;9896;42.486;26.506;2023-02-26T08:56:51;16.33;;;3.97;;
19509;SDS011;9896;42.486;26.506;2023-02-26T08:59:20;11.87;;;3.93;;
19509;SDS011;9896;42.486;26.506;2023-02-26T09:01:46;15.83;;;6.10;;
19509;SDS011;9896;42.486;26.506;2023-02-26T09:04:11;19.17;;;5.50;;
19509;SDS011;9896;42.486;26.506;2023-02-26T09:06:37;10.13;;;3.40;;
19509;SDS011;9896;42.486;26.506;2023-02-26T09:09:03;9.80;;;3.23;;
19509;SDS011;9896;42.486;26.506;2023-02-26T09:11:28;17.30;;;3.50;;
19509;SDS011;9896;42.486;26.506;2023-02-26T09:13:55;13.83;;;5.10;;
19509;SDS011;9896;42.486;26.506;2023-02-26T09:16:20;22.33;;;5.00;;
19509;SDS011;9896;42.486;26.506;2023-02-26T09:18:46;13.13;;;3.87;;
19509;SDS011;9896;42.486;26.506;2023-02-26T09:21:12;10.93;;;3.80;;
19509;SDS011;9896;42.486;26.506;2023-02-26T09:23:37;12.40;;;5.33;;
19509;SDS011;9896;42.486;26.506;2023-02-26T09:26:03;9.10;;;3.87;;
19509;SDS011;9896;42.486;26.506;2023-02-26T09:28:28;15.97;;;4.70;;
19509;SDS011;9896;42.486;26.506;2023-02-26T09:30:55;14.87;;;3.70;;
19509;SDS011;9896;42.486;26.506;2023-02-26T09:33:21;13.10;;;4.27;;
19509;SDS011;9896;42.486;26.506;2023-02-26T09:35:47;15.67;;;4.50;;
19509;SDS011;9896;42.486;26.506;2023-02-26T09:38:14;14.27;;;4.30;;
19509;SDS011;9896;42.486;26.506;2023-02-26T09:40:43;10.83;;;4.07;;
19509;SDS011;9896;42.486;26.506;2023-02-26T09:46:17;11.63;;;3.47;;
19509;SDS011;9896;42.486;26.506;2023-02-26T09:49:03;16.57;;;4.57;;
19509;SDS011;9896;42.486;26.506;2023-02-26T09:51:29;13.70;;;4.40;;
19509;SDS011;9896;42.486;26.506;2023-02-26T09:53:58;12.07;;;5.20;;
19509;SDS011;9896;42.486;26.506;2023-02-26T09:56:28;12.80;;;4.70;;
19509;SDS011;9896;42.486;26.506;2023-02-26T09:59:00;13.47;;;3.80;;
19509;SDS011;9896;42.486;26.506;2023-02-26T10:01:47;13.50;;;4.30;;
19509;SDS011;9896;42.486;26.506;2023-02-26T10:12:57;17.63;;;4.37;;
19509;SDS011;9896;42.486;26.506;2023-02-26T10:31:20;13.20;;;4.13;;
19509;SDS011;9896;42.486;26.506;2023-02-26T10:36:41;16.37;;;3.70;;
19509;SDS011;9896;42.486;26.506;2023-02-26T10:39:15;11.90;;;4.27;;
19509;SDS011;9896;42.486;26.506;2023-02-26T10:41:47;11.20;;;4.10;;
19509;SDS011;9896;42.486;26.506;2023-02-26T10:44:17;14.03;;;3.87;;
19509;SDS011;9896;42.486;26.506;2023-02-26T10:52:14;11.20;;;3.77;;
19509;SDS011;9896;42.486;26.506;2023-02-26T10:57:36;12.30;;;4.17;;
19509;SDS011;9896;42.486;26.506;2023-02-26T11:00:08;10.33;;;3.97;;
19509;SDS011;9896;42.486;26.506;2023-02-26T11:02:43;10.60;;;3.73;;
19509;SDS011;9896;42.486;26.506;2023-02-26T11:05:15;16.40;;;4.47;;
19509;SDS011;9896;42.486;26.506;2023-02-26T11:07:44;11.17;;;3.60;;
19509;SDS011;9896;42.486;26.506;2023-02-26T11:10:18;9.67;;;4.37;;
19509;SDS011;9896;42.486;26.506;2023-02-26T11:12:47;9.33;;;3.57;;
19509;SDS011;9896;42.486;26.506;2023-02-26T11:15:14;15.90;;;4.00;;
19509;SDS011;9896;42.486;26.506;2023-02-26T11:17:42;13.63;;;3.47;;
19509;SDS011;9896;42.486;26.506;2023-02-26T11:20:15;15.27;;;3.90;;
19509;SDS011;9896;42.486;26.506;2023-02-26T11:22:48;11.80;;;3.80;;
19509;SDS011;9896;42.486;26.506;2023-02-26T11:25:19;10.67;;;4.67;;
19509;SDS011;9896;42.486;26.506;2023-02-26T11:27:49;12.67;;;3.40;;
19509;SDS011;9896;42.486;26.506;2023-02-26T11:30:20;9.87;;;3.30;;
19509;SDS011;9896;42.486;26.506;2023-02-26T11:32:50;11.57;;;4.13;;
19509;SDS011;9896;42.486;26.506;2023-02-26T11:35:18;14.67;;;3.73;;
19509;SDS011;9896;42.486;26.506;2023-02-26T11:37:52;14.90;;;4.17;;
19509;SDS011;9896;42.486;26.506;2023-02-26T11:40:40;11.77;;;3.63;;
19509;SDS011;9896;42.486;26.506;2023-02-26T11:43:09;17.93;;;4.10;;
19509;SDS011;9896;42.486;26.506;2023-02-26T11:45:40;10.53;;;3.17;;
19509;SDS011;9896;42.486;26.506;2023-02-26T11:48:12;13.67;;;3.90;;
19509;SDS011;9896;42.486;26.506;2023-02-26T11:50:45;17.87;;;4.47;;
19509;SDS011;9896;42.486;26.506;2023-02-26T11:53:23;11.50;;;4.07;;
19509;SDS011;9896;42.486;26.506;2023-02-26T11:55:52;15.40;;;3.53;;
19509;SDS011;9896;42.486;26.506;2023-02-26T11:58:24;14.27;;;3.57;;
19509;SDS011;9896;42.486;26.506;2023-02-26T12:00:53;13.63;;;3.83;;
19509;SDS011;9896;42.486;26.506;2023-02-26T12:03:26;18.97;;;4.27;;
19509;SDS011;9896;42.486;26.506;2023-02-26T12:05:56;15.97;;;5.20;;
19509;SDS011;9896;42.486;26.506;2023-02-26T12:27:27;11.13;;;4.07;;
19509;SDS011;9896;42.486;26.506;2023-02-26T12:41:14;19.57;;;3.93;;
19509;SDS011;9896;42.486;26.506;2023-02-26T12:47:27;10.47;;;3.57;;
19509;SDS011;9896;42.486;26.506;2023-02-26T12:53:24;12.50;;;4.37;;
19509;SDS011;9896;42.486;26.506;2023-02-26T12:58:55;20.33;;;3.97;;
19509;SDS011;9896;42.486;26.506;2023-02-26T13:06:38;7.50;;;3.33;;
19509;SDS011;9896;42.486;26.506;2023-02-26T13:09:30;7.73;;;3.87;;
19509;SDS011;9896;42.486;26.506;2023-02-26T13:15:02;9.27;;;3.67;;
19509;SDS011;9896;42.486;26.506;2023-02-26T13:17:51;14.17;;;3.53;;
19509;SDS011;9896;42.486;26.506;2023-02-26T13:20:22;12.27;;;4.10;;
19509;SDS011;9896;42.486;26.506;2023-02-26T13:22:54;12.93;;;4.37;;
19509;SDS011;9896;42.486;26.506;2023-02-26T13:27:58;9.90;;;4.10;;
19509;SDS011;9896;42.486;26.506;2023-02-26T13:32:56;11.60;;;4.50;;
19509;SDS011;9896;42.486;26.506;2023-02-26T13:35:27;13.63;;;5.20;;
19509;SDS011;9896;42.486;26.506;2023-02-26T13:37:58;15.50;;;4.10;;
19509;SDS011;9896;42.486;26.506;2023-02-26T13:46:48;14.43;;;4.80;;
19509;SDS011;9896;42.486;26.506;2023-02-26T13:51:49;15.40;;;5.13;;
19509;SDS011;9896;42.486;26.506;2023-02-26T13:56:53;6.97;;;4.13;;
19509;SDS011;9896;42.486;26.506;2023-02-26T14:04:56;15.27;;;5.03;;
19509;SDS011;9896;42.486;26.506;2023-02-26T14:10:15;17.30;;;4.50;;
19509;SDS011;9896;42.486;26.506;2023-02-26T14:16:42;14.47;;;4.93;;
19509;SDS011;9896;42.486;26.506;2023-02-26T14:24:31;13.10;;;4.77;;
19509;SDS011;9896;42.486;26.506;2023-02-26T14:27:06;24.93;;;5.07;;
19509;SDS011;9896;42.486;26.506;2023-02-26T14:29:38;8.60;;;3.90;;
19509;SDS011;9896;42.486;26.506;2023-02-26T14:32:14;17.87;;;5.37;;
19509;SDS011;9896;42.486;26.506;2023-02-26T14:34:52;16.27;;;5.20;;
19509;SDS011;9896;42.486;26.506;2023-02-26T14:37:22;10.07;;;4.73;;
19509;SDS011;9896;42.486;26.506;2023-02-26T14:42:47;17.13;;;5.03;;
19509;SDS011;9896;42.486;26.506;2023-02-26T14:47:47;14.40;;;5.20;;
19509;SDS011;9896;42.486;26.506;2023-02-26T14:50:15;14.23;;;5.33;;
19509;SDS011;9896;42.486;26.506;2023-02-26T14:55:41;14.67;;;6.27;;
19509;SDS011;9896;42.486;26.506;2023-02-26T14:58:31;15.53;;;5.80;;
19509;SDS011;9896;42.486;26.506;2023-02-26T15:01:18;12.50;;;4.50;;
19509;SDS011;9896;42.486;26.506;2023-02-26T15:28:00;8.97;;;4.27;;
19509;SDS011;9896;42.486;26.506;2023-02-26T15:30:28;11.97;;;4.93;;
19509;SDS011;9896;42.486;26.506;2023-02-26T15:32:56;11.03;;;4.60;;
19509;SDS011;9896;42.486;26.506;2023-02-26T15:35:25;15.63;;;5.10;;
19509;SDS011;9896;42.486;26.506;2023-02-26T15:37:54;11.20;;;4.53;;
19509;SDS011;9896;42.486;26.506;2023-02-26T15:40:22;12.47;;;5.30;;
19509;SDS011;9896;42.486;26.506;2023-02-26T15:42:49;15.37;;;5.47;;
19509;SDS011;9896;42.486;26.506;2023-02-26T15:48:13;20.13;;;6.03;;
19509;SDS011;9896;42.486;26.506;2023-02-26T15:50:42;15.43;;;5.90;;
19509;SDS011;9896;42.486;26.506;2023-02-26T15:58:55;13.80;;;4.90;;
19509;SDS011;9896;42.486;26.506;2023-02-26T16:01:25;17.23;;;5.13;;
19509;SDS011;9896;42.486;26.506;2023-02-26T16:03:52;16.37;;;5.90;;
19509;SDS011;9896;42.486;26.506;2023-02-26T16:06:33;15.40;;;5.83;;
19509;SDS011;9896;42.486;26.506;2023-02-26T16:09:01;11.57;;;4.53;;
19509;SDS011;9896;42.486;26.506;2023-02-26T16:11:37;14.57;;;5.40;;
19509;SDS011;9896;42.486;26.506;2023-02-26T16:14:05;15.57;;;5.83;;
19509;SDS011;9896;42.486;26.506;2023-02-26T16:16:43;12.53;;;5.23;;
19509;SDS011;9896;42.486;26.506;2023-02-26T16:19:12;13.33;;;4.53;;
19509;SDS011;9896;42.486;26.506;2023-02-26T16:21:39;19.33;;;5.87;;
19509;SDS011;9896;42.486;26.506;2023-02-26T16:24:07;14.77;;;5.73;;
19509;SDS011;9896;42.486;26.506;2023-02-26T16:26:38;18.27;;;5.10;;
19509;SDS011;9896;42.486;26.506;2023-02-26T16:29:14;19.20;;;5.60;;
19509;SDS011;9896;42.486;26.506;2023-02-26T16:31:43;13.53;;;4.93;;
19509;SDS011;9896;42.486;26.506;2023-02-26T16:34:33;18.03;;;5.40;;
19509;SDS011;9896;42.486;26.506;2023-02-26T16:39:53;21.80;;;5.77;;
19509;SDS011;9896;42.486;26.506;2023-02-26T16:42:31;17.47;;;5.17;;
19509;SDS011;9896;42.486;26.506;2023-02-26T16:47:40;13.60;;;5.37;;
19509;SDS011;9896;42.486;26.506;2023-02-26T16:53:18;20.40;;;7.03;;
19509;SDS011;9896;42.486;26.506;2023-02-26T16:55:48;19.60;;;10.33;;
19509;SDS011;9896;42.486;26.506;2023-02-26T16:58:16;30.30;;;17.80;;
19509;SDS011;9896;42.486;26.506;2023-02-26T17:00:43;34.17;;;21.13;;
19509;SDS011;9896;42.486;26.506;2023-02-26T17:03:14;23.27;;;14.33;;
19509;SDS011;9896;42.486;26.506;2023-02-26T17:06:27;19.43;;;7.10;;
19509;SDS011;9896;42.486;26.506;2023-02-26T17:08:46;13.10;;;6.00;;
19509;SDS011;9896;42.486;26.506;2023-02-26T17:11:31;19.87;;;7.20;;
19509;SDS011;9896;42.486;26.506;2023-02-26T17:16:39;18.37;;;5.27;;
19509;SDS011;9896;42.486;26.506;2023-02-26T17:19:05;13.67;;;5.77;;
19509;SDS011;9896;42.486;26.506;2023-02-26T17:21:31;16.43;;;5.73;;
19509;SDS011;9896;42.486;26.506;2023-02-26T17:23:56;21.67;;;6.20;;
19509;SDS011;9896;42.486;26.506;2023-02-26T17:26:23;17.50;;;5.33;;
19509;SDS011;9896;42.486;26.506;2023-02-26T17:28:49;16.73;;;5.73;;
19509;SDS011;9896;42.486;26.506;2023-02-26T17:31:15;18.00;;;6.03;;
19509;SDS011;9896;42.486;26.506;2023-02-26T17:33:41;11.07;;;3.80;;
19509;SDS011;9896;42.486;26.506;2023-02-26T17:36:13;12.13;;;5.20;;
19509;SDS011;9896;42.486;26.506;2023-02-26T17:38:40;16.90;;;5.90;;
19509;SDS011;9896;42.486;26.506;2023-02-26T17:41:10;17.30;;;5.70;;
19509;SDS011;9896;42.486;26.506;2023-02-26T17:43:46;12.63;;;4.73;;
19509;SDS011;9896;42.486;26.506;2023-02-26T17:46:12;12.17;;;5.10;;
19509;SDS011;9896;42.486;26.506;2023-02-26T17:48:38;18.33;;;6.23;;
19509;SDS011;9896;42.486;26.506;2023-02-26T17:51:04;13.80;;;5.30;;
19509;SDS011;9896;42.486;26.506;2023-02-26T17:53:29;15.43;;;5.43;;
19509;SDS011;9896;42.486;26.506;2023-02-26T17:56:07;16.73;;;5.33;;
19509;SDS011;9896;42.486;26.506;2023-02-26T17:58:39;18.87;;;7.20;;
19509;SDS011;9896;42.486;26.506;2023-02-26T18:01:05;12.17;;;3.90;;
19509;SDS011;9896;42.486;26.506;2023-02-26T18:03:31;16.07;;;5.37;;
19509;SDS011;9896;42.486;26.506;2023-02-26T18:05:57;19.07;;;5.67;;
19509;SDS011;9896;42.486;26.506;2023-02-26T18:08:25;15.47;;;6.00;;
19509;SDS011;9896;42.486;26.506;2023-02-26T18:10:51;17.53;;;6.03;;
19509;SDS011;9896;42.486;26.506;2023-02-26T18:13:17;10.37;;;4.30;;
19509;SDS011;9896;42.486;26.506;2023-02-26T18:15:43;19.63;;;6.10;;
19509;SDS011;9896;42.486;26.506;2023-02-26T18:18:12;10.87;;;4.90;;
19509;SDS011;9896;42.486;26.506;2023-02-26T18:20:39;12.37;;;5.17;;
19509;SDS011;9896;42.486;26.506;2023-02-26T18:23:05;18.50;;;6.57;;
19509;SDS011;9896;42.486;26.506;2023-02-26T18:25:31;9.00;;;4.60;;